AirNav   ProFlight Series 2 Aviation Headset
 
 1474 users online  

MU05 Arch Heliport
St Louis, Missouri, USA

GOING TO ST LOUIS?


FAA INFORMATION EFFECTIVE 16 JULY 2020

Location

FAA Identifier: MU05
Lat/Long: 38-37-30.8800N 090-12-47.7600W
38-37.514667N 090-12.796000W
38.6252444,-90.2132667
(estimated)
Elevation: 500 ft. / 152 m (estimated)
Variation: 01E (1990)
Time zone: UTC -5 (UTC -6 during Standard Time)
Zip code: 63104

Heliport Operations

Heliport use: Private use, MEDICAL USE.
Activation date: 12/1993
Control tower: no
ARTCC: KANSAS CITY CENTER
FSS: SAINT LOUIS FLIGHT SERVICE STATION
Attendance: CONTINUOUS
Wind indicator: yes
Segmented circle: no

Heliport Communications

WX ASOS at CPS (4 nm SE): PHONE 618-332-0001
WX ASOS at STL (10 nm NW): 125.025 (314-890-4790)
WX AWOS-3 at ALN (18 nm NE): 128.0 (618-259-7231)

Nearby radio navigation aids

VOR radial/distance  VOR name  Freq  Var
TOYr240/15.4TROY VORTAC116.0004E
STLr137/18.9ST LOUIS VORTAC117.4001E
FTZr092/35.8FORISTELL VORTAC110.8005E

 
NDB name  Hdg/Dist  Freq  Var  ID
ACORE311/9.635000ECP -.-. .--.
CIVIC MEMORIAL206/17.626301WCVM -.-. ...- --

Heliport Services

Runway Information

Helipad H1

Dimensions: 30 x 30 ft. / 9 x 9 m
Surface: concrete
Latitude: 38-37.514667N
Longitude: 090-12.796000W
Elevation: 500.0 ft.
Traffic pattern: leftleft

Heliport Ownership and Management from official FAA records

Ownership: Privately-owned
Owner: ARCH
2207 SCOTT AVE
ST LOUIS, MO 63103
Phone 314-640-3354
Manager: ROBERT GROVES
2207 SCOTT AVE
ST LOUIS, MO 63103
Phone (314) 486-2783

Additional Remarks

A52-H1 45' BLDG 250' SW.
FOR CD CTC ST LOUIS APCH AT 314-890-1018.

Instrument Procedures

There are no published instrument procedures at MU05.

Some nearby airports with instrument procedures:

KCPS - St Louis Downtown Airport (4 nm SE)
KSTL - St Louis Lambert International Airport (10 nm NW)
1H0 - Creve Coeur Airport (15 nm NW)
KALN - St Louis Regional Airport (18 nm NE)
KBLV - Scott Air Force Base/MidAmerica Airport (18 nm E)
 
Loc | Ops | Rwys | IFR | FBO | Links
Com | Nav | Svcs | Stats | Notes
Area around MU05 (Arch Heliport)
 
Road maps at: MapQuest Bing Google
 
Aerial photo
No photo
 
Sectional chart

 
Airport distance calculator
Flying to Arch Heliport? Find the distance to fly.

From to MU05

Sunrise and sunset
Times for 07-Aug-2020
 Local
(UTC-5)
 Zulu
(UTC)
Morning civil twilight05:4110:41
Sunrise06:1011:10
Sunset20:0301:03
Evening civil twilight20:3201:32

Current date and time
Zulu (UTC)  07-Aug-2020 16:12:18
Local (UTC-5)  07-Aug-2020 11:12:18
 
METAR
KCPS 
5nm SE 
071553Z 11004KT 10SM CLR 26/16 A3016 RMK AO2 SLP211 T02560161
KSTL 
10nm NW 
071551Z 18010KT 10SM FEW250 26/14 A3016 RMK AO2 SLP204 T02610144 $
KALN 
18nm NE 
071550Z 13006KT 10SM SKC 24/18 A3017
KBLV 
19nm E 
071556Z AUTO 13005KT 10SM CLR 25/17 A3016 RMK AO2 SLP214 T02510170 $
TAF
KCPS 
5nm SE 
071120Z 0712/0812 14006KT P6SM FEW050 FM080000 VRB04KT P6SM FEW250
KSTL 
10nm NW 
071120Z 0712/0818 12006KT P6SM FEW050 FM080000 VRB04KT P6SM FEW250
KBLV 
19nm E 
070800Z 0708/0814 VRB06KT 9999 FEW050 QNH3006INS TX28/0721Z TN16/0711Z
NOTAMs
Click for the latest NOTAMs
NOTAMs are issued by the DoD/FAA and will open in a separate window not controlled by AirNav.

 

 
 

Would you like to see your business listed on this page?

 If your business provides an interesting product or service to pilots, flight crews, aircraft, or users of the Arch Heliport, you should consider listing it here.  To start the listing process, click on the button below
 
Add a business
 

Other Pages about Arch Heliport

members.aol.com/...
 
Update a link
 
Copyright © AirNav, LLC. All rights reserved. Privacy Policy  Contact